Time;durP1;ratioP1;P1;durP2;ratioP2;P2;SDS_P1;SDS_P2;PMS_P1;PMS_P2;Temp;Humidity;BMP_temperature;BMP_pressure;BME280_temperature;BME280_humidity;BME280_pressure;Samples;Min_cycle;Max_cycle;Signal;HPM_P1;HPM_P2
2021/04/29 00:01:39;;;;;;;11.88;4.78;;;;;;;14.82;75.18;99890.81;5052945;28;20037;-75
2021/04/29 00:04:05;;;;;;;7.97;3.47;;;;;;;14.69;75.21;99883.97;5052092;28;20032;-74
2021/04/29 00:06:33;;;;;;;7.88;4.45;;;;;;;14.71;74.89;99876.00;5052152;28;20033;-75
2021/04/29 00:08:58;;;;;;;10.98;3.72;;;;;;;14.60;75.58;99878.00;5052096;28;20059;-75
2021/04/29 00:11:24;;;;;;;10.48;3.88;;;;;;;14.60;75.75;99883.59;5052020;28;20032;-75
2021/04/29 00:13:49;;;;;;;8.13;3.15;;;;;;;14.65;75.55;99883.19;5053059;28;20067;-75
2021/04/29 00:16:15;;;;;;;8.43;3.60;;;;;;;14.61;75.64;99885.97;5052222;28;20029;-75
2021/04/29 00:18:41;;;;;;;11.05;3.40;;;;;;;14.68;75.48;99877.59;5051981;28;20029;-75
2021/04/29 00:21:06;;;;;;;8.55;4.13;;;;;;;14.65;75.82;99884.00;5051980;28;20033;-75
2021/04/29 00:23:32;;;;;;;9.85;3.92;;;;;;;14.56;75.67;99871.56;5051646;28;20067;-75
2021/04/29 00:25:58;;;;;;;8.80;4.40;;;;;;;14.61;76.13;99877.59;5051894;28;20094;-75
2021/04/29 00:28:24;;;;;;;11.20;4.45;;;;;;;14.61;76.00;99874.78;5051906;28;20032;-75
2021/04/29 00:30:50;;;;;;;9.00;3.72;;;;;;;14.59;75.76;99879.97;5052427;28;20033;-75
2021/04/29 00:33:16;;;;;;;7.72;3.33;;;;;;;14.54;75.96;99869.19;5052219;28;20468;-75
2021/04/29 00:35:42;;;;;;;9.98;3.45;;;;;;;14.45;76.34;99871.53;5055397;28;20032;-75
2021/04/29 00:38:07;;;;;;;11.85;3.80;;;;;;;14.55;76.31;99879.19;5055793;28;20032;-75
2021/04/29 00:40:33;;;;;;;6.53;3.85;;;;;;;14.46;76.28;99884.31;5055542;28;20438;-75
2021/04/29 00:42:59;;;;;;;6.10;3.25;;;;;;;14.38;76.44;99875.13;5054985;28;20123;-74
2021/04/29 00:45:24;;;;;;;7.00;3.60;;;;;;;14.38;76.59;99868.69;5055398;28;20047;-75
2021/04/29 00:47:51;;;;;;;11.48;3.63;;;;;;;14.38;76.43;99875.13;5055303;28;20033;-76
2021/04/29 00:50:28;;;;;;;7.05;4.00;;;;;;;14.62;75.86;99876.38;5055436;28;20040;-75
2021/04/29 00:52:53;;;;;;;12.80;4.00;;;;;;;14.45;75.94;99881.94;5055878;28;20116;-75
2021/04/29 00:55:19;;;;;;;7.00;3.42;;;;;;;14.42;76.38;99889.09;5055533;28;20547;-75
2021/04/29 00:57:45;;;;;;;12.02;3.78;;;;;;;14.43;76.40;99879.50;5055185;28;20395;-75
2021/04/29 01:00:12;;;;;;;7.00;3.60;;;;;;;14.38;76.68;99888.28;5055740;28;20033;-74
2021/04/29 01:02:43;;;;;;;7.70;3.50;;;;;;;14.25;76.74;99878.66;5056249;28;20468;-75
2021/04/29 01:05:18;;;;;;;9.82;4.25;;;;;;;14.28;76.87;99878.69;5055282;28;20029;-75
2021/04/29 01:07:49;;;;;;;9.90;4.15;;;;;;;14.20;76.90;99879.84;5056471;28;20415;-75
2021/04/29 01:10:28;;;;;;;13.10;4.13;;;;;;;14.16;76.52;99840.66;5058946;28;20090;-76
2021/04/29 01:13:12;;;;;;;6.78;3.35;;;;;;;14.20;76.34;99870.66;5056122;28;20025;-75
2021/04/29 01:15:46;;;;;;;9.45;3.95;;;;;;;14.15;76.83;99869.03;5056134;28;20029;-74
2021/04/29 01:18:13;;;;;;;7.15;4.10;;;;;;;14.10;76.77;99873.00;5056225;28;20059;-75
2021/04/29 01:20:48;;;;;;;12.55;5.43;;;;;;;13.90;77.28;99849.34;5054713;28;20021;-75
2021/04/29 01:23:42;;;;;;;6.40;3.90;;;;;;;14.02;77.03;99882.59;5054914;28;20025;-75
2021/04/29 01:26:14;;;;;;;;;;;;;;;14.13;76.93;99875.03;5055629;28;20017;-74
2021/04/29 01:28:40;;;;;;;6.90;3.72;;;;;;;14.06;77.12;99872.22;5054838;28;20027;-75
2021/04/29 01:31:14;;;;;;;5.97;3.90;;;;;;;14.09;76.42;99865.81;5055550;28;20526;-74
2021/04/29 01:33:43;;;;;;;9.68;4.28;;;;;;;13.96;77.44;99874.97;5054412;28;20032;-74
2021/04/29 01:36:09;;;;;;;5.80;3.80;;;;;;;13.83;77.92;99871.72;5038115;28;20037;-74
2021/04/29 01:38:37;;;;;;;15.15;4.50;;;;;;;13.78;78.26;99883.25;5054646;28;20036;-75
2021/04/29 01:41:03;;;;;;;8.40;3.92;;;;;;;13.75;78.11;99878.47;5056162;28;20475;-74
2021/04/29 01:43:29;;;;;;;8.02;4.18;;;;;;;13.71;78.65;99874.84;5054267;28;20025;-74
2021/04/29 01:45:55;;;;;;;10.55;4.20;;;;;;;13.73;78.49;99876.03;5053783;28;20043;-74
2021/04/29 01:48:21;;;;;;;9.13;3.80;;;;;;;13.72;78.55;99862.47;5054531;28;20360;-74
2021/04/29 01:50:48;;;;;;;5.88;3.65;;;;;;;13.69;78.36;99874.41;5054182;28;20035;-75
2021/04/29 01:53:14;;;;;;;9.30;4.53;;;;;;;13.65;78.51;99868.03;5054154;28;20017;-74
2021/04/29 01:55:39;;;;;;;7.80;3.83;;;;;;;13.70;78.63;99870.47;5054077;28;20033;-74
2021/04/29 01:58:05;;;;;;;6.85;4.30;;;;;;;13.69;78.64;99878.03;5054968;28;20021;-74
2021/04/29 02:00:31;;;;;;;13.23;4.15;;;;;;;13.63;78.34;99872.03;5053925;28;20475;-75
2021/04/29 02:02:59;;;;;;;13.45;4.18;;;;;;;13.63;77.50;99869.22;5053927;28;20116;-75
2021/04/29 02:05:25;;;;;;;8.38;4.25;;;;;;;13.63;78.31;99858.03;5055681;28;20090;-75
2021/04/29 02:07:51;;;;;;;11.93;4.65;;;;;;;13.57;78.27;99856.78;5053629;28;20033;-74
2021/04/29 02:10:17;;;;;;;9.05;4.57;;;;;;;13.50;78.91;99856.75;5053825;28;20032;-74
2021/04/29 02:12:48;;;;;;;8.93;4.28;;;;;;;13.49;78.56;99857.97;5055003;28;20025;-75
2021/04/29 02:15:15;;;;;;;7.95;3.92;;;;;;;13.44;78.56;99851.94;5054474;28;20349;-75
2021/04/29 02:17:49;;;;;;;7.25;3.70;;;;;;;13.43;78.64;99850.34;5053292;28;20033;-75
2021/04/29 02:20:15;;;;;;;6.88;3.92;;;;;;;13.53;79.07;99855.16;5054162;28;20079;-75
2021/04/29 02:22:42;;;;;;;11.88;3.75;;;;;;;13.56;78.79;99854.41;5053800;28;20040;-75
2021/04/29 02:25:11;;;;;;;14.65;4.82;;;;;;;13.53;78.75;99861.59;5053506;28;20025;-75
2021/04/29 02:27:38;;;;;;;10.45;3.85;;;;;;;13.48;79.21;99859.16;5053677;28;20033;-75
2021/04/29 02:30:12;;;;;;;5.82;3.55;;;;;;;13.48;78.98;99861.94;5054362;28;20025;-74
2021/04/29 02:32:38;;;;;;;6.53;3.33;;;;;;;13.48;78.83;99864.75;5053371;28;20052;-75
2021/04/29 02:35:06;;;;;;;7.70;4.13;;;;;;;13.59;78.65;99865.59;5053862;28;20383;-75
2021/04/29 02:37:33;;;;;;;9.43;5.85;;;;;;;13.53;78.89;99861.59;5053134;28;20021;-75
2021/04/29 02:39:59;;;;;;;11.65;7.70;;;;;;;13.40;78.71;99837.94;5053271;28;20029;-74
2021/04/29 02:42:25;;;;;;;13.20;9.88;;;;;;;13.57;78.92;99867.19;5054436;28;20490;-75
2021/04/29 02:44:51;;;;;;;16.52;10.60;;;;;;;13.63;78.59;99862.81;5053077;28;20029;-75
2021/04/29 02:47:16;;;;;;;17.13;9.50;;;;;;;13.63;78.78;99857.22;5053134;28;20128;-75
2021/04/29 02:49:42;;;;;;;14.55;9.73;;;;;;;13.52;78.75;99864.75;5053591;28;20075;-75
2021/04/29 02:52:10;;;;;;;14.73;8.85;;;;;;;13.56;79.04;99860.00;5053008;28;20033;-74
2021/04/29 02:54:36;;;;;;;8.55;6.72;;;;;;;13.66;79.01;99872.44;5053490;28;20420;-74
2021/04/29 02:57:02;;;;;;;15.60;9.23;;;;;;;13.64;78.84;99872.81;5051773;28;20029;-74
2021/04/29 02:59:28;;;;;;;13.95;7.75;;;;;;;13.60;78.27;99836.47;5036479;28;20040;-74
2021/04/29 03:01:53;;;;;;;13.68;10.73;;;;;;;13.65;78.83;99862.44;5052877;28;20037;-74
2021/04/29 03:04:19;;;;;;;14.73;10.95;;;;;;;13.55;78.78;99853.59;5052814;28;20111;-74
2021/04/29 03:06:47;;;;;;;18.52;9.02;;;;;;;13.55;78.55;99858.38;5052833;28;20047;-74
2021/04/29 03:09:12;;;;;;;18.23;13.00;;;;;;;13.55;78.69;99859.19;5052608;28;20388;-75
2021/04/29 03:11:38;;;;;;;21.77;16.17;;;;;;;13.61;78.72;99857.63;5053748;28;20029;-74
2021/04/29 03:20:56;;;;;;;21.42;16.63;;;;;;;13.41;78.99;99853.50;5054467;28;20082;-74
2021/04/29 03:23:21;;;;;;;31.55;28.20;;;;;;;13.35;79.30;99858.66;5054135;28;20025;-74
2021/04/29 03:25:47;;;;;;;55.45;46.28;;;;;;;13.30;79.47;99852.63;5055067;28;20383;-75
2021/04/29 03:28:12;;;;;;;32.40;24.55;;;;;;;13.33;79.37;99857.47;5057321;28;20020;-74
2021/04/29 03:30:38;;;;;;;25.80;21.50;;;;;;;13.38;78.85;99854.31;5054235;28;20062;-73
2021/04/29 03:33:05;;;;;;;27.58;16.80;;;;;;;13.43;79.14;99856.72;5054914;28;20029;-75
2021/04/29 03:35:31;;;;;;;23.95;19.50;;;;;;;13.48;78.30;99853.56;5055050;28;20033;-74
2021/04/29 03:37:56;;;;;;;24.13;15.23;;;;;;;13.42;78.76;99859.91;5052546;28;20357;-74
2021/04/29 03:40:22;;;;;;;18.45;10.52;;;;;;;13.47;79.08;99860.31;5052281;28;20029;-74
2021/04/29 03:42:48;;;;;;;12.88;8.00;;;;;;;13.39;78.96;99861.50;5052301;28;20017;-74
2021/04/29 03:45:13;;;;;;;13.40;9.48;;;;;;;13.38;78.88;99861.88;5052316;28;20037;-74
2021/04/29 03:47:41;;;;;;;20.55;14.27;;;;;;;13.29;79.03;99851.03;5052248;28;20124;-74
2021/04/29 03:50:07;;;;;;;19.02;14.18;;;;;;;13.21;79.18;99843.75;5052303;28;20032;-74
2021/04/29 03:52:32;;;;;;;16.23;9.10;;;;;;;13.28;78.67;99846.66;5052190;28;20033;-75
2021/04/29 03:54:58;;;;;;;17.52;9.27;;;;;;;13.29;78.76;99848.25;5052199;28;20031;-74
2021/04/29 03:57:24;;;;;;;13.52;9.98;;;;;;;13.28;78.81;99849.44;5052110;28;20115;-74
2021/04/29 03:59:49;;;;;;;8.60;4.93;;;;;;;13.26;78.22;99854.59;5052283;28;20064;-73
2021/04/29 04:02:15;;;;;;;8.82;3.47;;;;;;;13.30;78.08;99858.22;5052116;28;20025;-74
2021/04/29 04:04:40;;;;;;;8.45;4.03;;;;;;;13.23;77.75;99859.00;5052688;28;20029;-74
2021/04/29 04:07:06;;;;;;;5.15;3.80;;;;;;;13.04;78.96;99857.22;5052143;28;20422;-74
2021/04/29 04:09:32;;;;;;;6.28;3.97;;;;;;;13.05;78.93;99853.25;5055010;28;20124;-74
2021/04/29 04:11:57;;;;;;;8.13;3.92;;;;;;;13.04;78.94;99851.63;5056363;28;20033;-76
2021/04/29 04:14:23;;;;;;;7.65;3.53;;;;;;;12.98;78.77;99853.19;5056283;28;20029;-73
2021/04/29 04:16:48;;;;;;;12.82;3.95;;;;;;;13.00;78.60;99856.41;5056135;28;20033;-74
2021/04/29 04:19:14;;;;;;;13.98;4.22;;;;;;;12.99;79.07;99854.78;5056000;28;20121;-74
2021/04/29 04:21:39;;;;;;;6.15;3.80;;;;;;;13.03;78.78;99866.78;5056072;28;20041;-74
2021/04/29 04:24:11;;;;;;;8.63;3.67;;;;;;;13.01;78.65;99871.97;5055854;28;20041;-74
2021/04/29 04:26:37;;;;;;;4.13;3.58;;;;;;;12.99;78.82;99874.31;5057058;28;20025;-75
2021/04/29 04:29:02;;;;;;;6.25;3.33;;;;;;;13.06;78.79;99871.59;5055714;28;20029;-74
2021/04/29 04:31:29;;;;;;;6.65;3.85;;;;;;;13.21;78.28;99868.91;5055942;28;20120;-74
2021/04/29 04:33:54;;;;;;;11.70;4.15;;;;;;;13.86;76.79;99882.13;5056458;28;20037;-74
2021/04/29 04:36:20;;;;;;;7.57;3.60;;;;;;;14.56;74.17;99866.78;5055511;28;20068;-74
2021/04/29 04:38:46;;;;;;;8.30;3.47;;;;;;;15.20;70.67;99869.59;5055796;28;20065;-74
2021/04/29 04:41:11;;;;;;;11.07;5.00;;;;;;;15.57;68.34;99871.16;5055750;28;20071;-74
2021/04/29 04:43:37;;;;;;;5.45;3.00;;;;;;;16.07;67.38;99870.19;5055437;28;20384;-74
2021/04/29 04:46:02;;;;;;;7.57;3.28;;;;;;;16.53;65.42;99875.56;5055388;28;20029;-74
2021/04/29 04:48:28;;;;;;;6.55;3.05;;;;;;;16.97;63.09;99886.13;5055634;28;20029;-74
2021/04/29 04:50:54;;;;;;;9.90;3.13;;;;;;;17.39;62.09;99886.16;5055263;28;20025;-75
2021/04/29 04:53:20;;;;;;;8.68;3.50;;;;;;;17.77;60.75;99876.53;5055779;28;20128;-75
2021/04/29 04:55:48;;;;;;;7.57;3.58;;;;;;;18.25;59.23;99900.88;5055067;28;20029;-74
2021/04/29 04:58:18;;;;;;;12.52;4.10;;;;;;;18.71;57.82;99899.50;5055071;28;20107;-74
2021/04/29 05:00:44;;;;;;;4.80;3.20;;;;;;;19.21;56.47;99898.69;5055007;28;20120;-74
2021/04/29 05:03:11;;;;;;;8.10;4.20;;;;;;;19.47;55.55;99899.06;5056284;28;20037;-75
2021/04/29 05:05:40;;;;;;;9.27;4.78;;;;;;;19.65;55.58;99893.91;5056182;28;20051;-74
2021/04/29 05:08:06;;;;;;;10.20;4.45;;;;;;;19.82;54.86;99897.66;5054716;28;20151;-74
2021/04/29 05:10:35;;;;;;;9.15;4.63;;;;;;;20.20;53.72;99900.91;5054440;28;20430;-74
2021/04/29 05:13:02;;;;;;;6.35;3.80;;;;;;;20.72;52.96;99917.16;5056089;28;20036;-74
2021/04/29 05:15:29;;;;;;;9.88;3.97;;;;;;;21.09;51.70;99915.88;5054735;28;20033;-75
2021/04/29 05:17:55;;;;;;;8.55;4.53;;;;;;;21.26;51.59;99918.72;5054640;28;20064;-75
2021/04/29 05:20:21;;;;;;;8.13;4.38;;;;;;;21.54;51.07;99934.19;5053762;28;20111;-75
2021/04/29 05:22:47;;;;;;;7.93;4.82;;;;;;;21.84;49.93;99939.47;5055082;28;20044;-75
2021/04/29 05:25:13;;;;;;;10.23;4.03;;;;;;;22.05;49.55;99935.25;5054510;28;20033;-75
2021/04/29 05:27:39;;;;;;;7.53;4.20;;;;;;;22.47;49.39;99938.09;5056058;28;20037;-74
2021/04/29 05:30:05;;;;;;;10.70;6.05;;;;;;;22.63;48.23;99940.06;5055974;28;20083;-75
2021/04/29 05:32:31;;;;;;;8.02;5.07;;;;;;;22.16;49.32;99946.31;5055949;28;20054;-74
2021/04/29 05:34:57;;;;;;;7.10;3.70;;;;;;;21.59;50.74;99942.94;5054289;28;20535;-74
2021/04/29 05:37:24;;;;;;;5.63;3.40;;;;;;;21.50;51.89;99939.94;5037576;28;20044;-74
2021/04/29 05:39:50;;;;;;;7.43;4.40;;;;;;;21.80;50.63;99947.25;5054524;28;20387;-74
2021/04/29 05:42:15;;;;;;;8.93;4.18;;;;;;;22.45;49.75;99944.22;5053727;28;20055;-74
2021/04/29 05:44:41;;;;;;;13.18;4.38;;;;;;;22.59;49.53;99947.91;5054665;28;20036;-74
2021/04/29 05:47:06;;;;;;;13.30;4.50;;;;;;;22.55;49.11;99952.88;5054489;28;20379;-74
2021/04/29 05:49:32;;;;;;;9.15;4.43;;;;;;;22.31;48.65;99958.00;5055553;28;20357;-74
2021/04/29 05:51:57;;;;;;;15.23;5.38;;;;;;;22.74;47.70;99952.69;5054515;28;20356;-75
2021/04/29 05:54:23;;;;;;;8.57;3.30;;;;;;;23.56;46.88;99954.16;5053868;28;20471;-75
2021/04/29 05:56:48;;;;;;;8.23;3.83;;;;;;;23.59;46.01;99953.22;5054411;28;20036;-75
2021/04/29 05:59:14;;;;;;;11.80;3.97;;;;;;;24.42;44.20;99952.72;5053816;28;20028;-74
2021/04/29 06:01:42;;;;;;;7.10;3.45;;;;;;;24.29;44.19;99958.47;5053703;28;20029;-74
2021/04/29 06:04:08;;;;;;;11.65;3.60;;;;;;;24.54;43.54;99962.44;5054242;28;20025;-73
2021/04/29 06:06:33;;;;;;;11.93;3.83;;;;;;;24.60;43.29;99963.41;5053537;28;20584;-74
2021/04/29 06:08:59;;;;;;;9.57;3.33;;;;;;;24.46;43.32;99964.78;5053110;28;20052;-75
2021/04/29 06:11:25;;;;;;;9.48;3.45;;;;;;;24.65;42.96;99965.66;5053880;28;20033;-74
2021/04/29 06:13:50;;;;;;;6.95;2.63;;;;;;;24.34;43.60;99961.94;5053475;28;20036;-73
2021/04/29 06:16:16;;;;;;;9.25;3.55;;;;;;;23.71;45.32;99967.44;5053906;28;20163;-74
2021/04/29 06:18:42;;;;;;;11.43;3.58;;;;;;;22.53;48.36;99963.84;5054849;28;20086;-74
2021/04/29 06:21:08;;;;;;;9.50;4.22;;;;;;;21.52;51.13;99971.44;5053690;28;20021;-74
2021/04/29 06:23:34;;;;;;;12.68;3.95;;;;;;;21.16;52.67;99954.50;5053159;28;20033;-74
2021/04/29 06:26:03;;;;;;;9.88;4.30;;;;;;;20.75;53.90;99964.34;5053684;28;20037;-74
2021/04/29 06:28:29;;;;;;;10.68;4.45;;;;;;;20.24;55.29;99962.97;5053750;28;20036;-74
2021/04/29 06:30:55;;;;;;;10.20;3.95;;;;;;;20.45;54.35;99967.38;5053598;28;20380;-74
2021/04/29 06:33:23;;;;;;;9.60;4.40;;;;;;;20.49;54.72;99960.44;5053568;28;20036;-74
2021/04/29 06:35:50;;;;;;;11.55;4.82;;;;;;;20.65;54.00;99954.06;5053256;28;20029;-73
2021/04/29 06:38:16;;;;;;;11.07;4.70;;;;;;;21.05;52.84;99953.97;5053148;28;20475;-74
2021/04/29 06:40:42;;;;;;;8.65;3.78;;;;;;;20.06;55.91;99946.38;5053222;28;20056;-74
2021/04/29 06:43:07;;;;;;;12.23;4.72;;;;;;;20.32;54.99;99951.09;5052936;28;20480;-74
2021/04/29 06:45:32;;;;;;;13.48;4.18;;;;;;;20.12;55.18;99945.44;5052682;28;20083;-73
2021/04/29 06:47:58;;;;;;;11.88;4.22;;;;;;;20.92;53.51;99951.03;5053580;28;20025;-74
2021/04/29 06:50:24;;;;;;;10.45;4.25;;;;;;;20.98;53.33;99949.25;5052711;28;20029;-72
2021/04/29 06:52:49;;;;;;;9.30;4.50;;;;;;;21.39;52.22;99945.88;5052739;28;20060;-73
2021/04/29 06:55:15;;;;;;;11.45;4.65;;;;;;;21.60;52.01;99940.91;5052864;28;20087;-74
2021/04/29 06:57:40;;;;;;;9.18;4.47;;;;;;;21.50;51.80;99950.47;5052548;28;20120;-74
2021/04/29 07:00:07;;;;;;;11.20;4.88;;;;;;;21.87;50.30;99923.59;5052548;28;20028;-74
2021/04/29 07:02:32;;;;;;;10.52;4.70;;;;;;;22.51;49.08;99963.50;5052537;28;20033;-74
2021/04/29 07:04:58;;;;;;;10.07;4.50;;;;;;;23.03;47.29;99968.84;5052498;28;20520;-75
2021/04/29 07:07:24;;;;;;;11.70;4.57;;;;;;;23.29;46.64;99974.50;5052516;28;20029;-75
2021/04/29 07:09:49;;;;;;;11.75;4.13;;;;;;;24.04;44.34;99984.94;5051959;28;20067;-74
2021/04/29 07:12:15;;;;;;;7.88;3.95;;;;;;;24.58;42.38;99999.28;5052450;28;20025;-75
2021/04/29 07:14:40;;;;;;;9.95;3.17;;;;;;;25.45;40.63;100004.81;5052164;28;20124;-75
2021/04/29 07:17:06;;;;;;;7.03;3.40;;;;;;;26.01;39.45;100020.78;5051786;28;20032;-76
2021/04/29 07:19:31;;;;;;;5.78;3.05;;;;;;;26.64;38.36;100024.16;5052892;28;20040;-77
2021/04/29 07:21:57;;;;;;;6.80;2.85;;;;;;;27.43;36.46;100041.22;5052610;28;20483;-77
2021/04/29 07:24:23;;;;;;;7.72;4.28;;;;;;;27.89;35.37;100029.59;5052667;28;20033;-76
2021/04/29 07:26:48;;;;;;;4.50;2.50;;;;;;;28.24;33.46;100031.91;5052400;28;20021;-76
2021/04/29 07:29:14;;;;;;;3.78;2.40;;;;;;;28.07;34.08;100046.66;5052717;28;20080;-76
2021/04/29 07:31:39;;;;;;;10.82;2.90;;;;;;;26.34;36.70;100043.00;5052738;28;20443;-77
2021/04/29 07:34:05;;;;;;;5.55;2.58;;;;;;;25.66;36.93;100047.91;5052496;28;20479;-75
2021/04/29 07:36:31;;;;;;;6.60;2.40;;;;;;;26.01;36.89;100057.84;5051884;28;20071;-76
2021/04/29 07:38:58;;;;;;;13.55;5.45;;;;;;;24.96;41.16;100059.59;5052065;28;20053;-76
2021/04/29 07:41:26;;;;;;;12.30;4.57;;;;;;;24.46;43.36;100072.03;5052633;28;20025;-76
2021/04/29 07:43:51;;;;;;;12.48;4.63;;;;;;;23.59;45.82;100066.81;5057490;28;20020;-76
2021/04/29 07:46:17;;;;;;;11.25;5.95;;;;;;;23.27;46.71;100072.25;5058745;28;20441;-76
2021/04/29 07:48:43;;;;;;;15.85;4.63;;;;;;;22.49;48.85;100072.50;5060239;28;20090;-76
2021/04/29 07:51:08;;;;;;;9.40;4.43;;;;;;;21.87;50.15;100085.03;5059089;28;20029;-76
2021/04/29 07:53:34;;;;;;;10.07;4.30;;;;;;;22.12;50.30;100098.59;5058777;28;20035;-76
2021/04/29 07:56:00;;;;;;;11.27;4.38;;;;;;;21.89;51.06;100105.19;5058722;28;20036;-76
2021/04/29 07:58:25;;;;;;;12.40;4.80;;;;;;;21.23;52.56;100101.47;5058928;28;20021;-76
2021/04/29 08:00:51;;;;;;;10.05;4.57;;;;;;;20.62;53.74;100104.75;5059188;28;20451;-75
2021/04/29 08:03:17;;;;;;;12.55;4.07;;;;;;;20.53;54.08;100116.63;5058812;28;20383;-76
2021/04/29 08:05:42;;;;;;;10.23;4.68;;;;;;;19.95;55.18;100075.66;5059818;28;20032;-76
2021/04/29 08:08:09;;;;;;;11.15;4.30;;;;;;;20.00;56.25;100112.69;5058580;28;20049;-76
2021/04/29 08:10:35;;;;;;;8.50;3.35;;;;;;;19.79;56.15;100125.13;5059212;28;20044;-76
2021/04/29 08:13:01;;;;;;;10.05;4.03;;;;;;;19.65;56.44;100114.03;5060132;28;20036;-75
2021/04/29 08:15:27;;;;;;;10.02;4.65;;;;;;;19.33;57.31;100118.13;5060078;28;20472;-76
2021/04/29 08:17:52;;;;;;;8.65;5.00;;;;;;;19.19;57.96;100092.13;5058658;28;20064;-76
2021/04/29 08:20:18;;;;;;;11.50;5.43;;;;;;;19.26;58.27;100087.19;5058456;28;20036;-75
2021/04/29 08:22:43;;;;;;;10.57;4.93;;;;;;;19.12;59.20;100078.91;5060236;28;20033;-76
2021/04/29 08:25:09;;;;;;;10.77;5.40;;;;;;;19.02;59.80;100057.31;5058391;28;20025;-75
2021/04/29 08:27:35;;;;;;;12.70;5.90;;;;;;;19.27;58.94;100040.03;5058034;28;20387;-75
2021/04/29 08:30:03;;;;;;;12.98;5.65;;;;;;;18.90;60.01;100018.41;5058666;28;20033;-76
2021/04/29 08:32:29;;;;;;;13.93;5.47;;;;;;;18.58;61.59;100013.94;5058658;28;20029;-76
2021/04/29 08:34:54;;;;;;;10.98;5.50;;;;;;;17.71;64.15;99987.91;5058609;28;20056;-76
2021/04/29 08:37:20;;;;;;;17.63;5.32;;;;;;;17.66;64.47;99965.84;5059358;28;20032;-76
2021/04/29 08:39:46;;;;;;;14.35;5.18;;;;;;;17.41;64.76;99928.72;5058973;28;20028;-76
2021/04/29 08:42:14;;;;;;;12.50;5.38;;;;;;;17.24;65.89;99872.22;5058749;28;20029;-76
2021/04/29 08:44:40;;;;;;;13.27;4.97;;;;;;;17.10;66.89;99823.75;5059378;28;20367;-76
2021/04/29 08:47:06;;;;;;;11.50;4.97;;;;;;;17.01;67.06;99822.25;5058864;28;20021;-76
2021/04/29 08:49:32;;;;;;;8.23;5.05;;;;;;;17.07;66.53;99895.69;5058530;28;20025;-76
2021/04/29 08:51:58;;;;;;;7.32;4.40;;;;;;;17.21;66.42;99923.69;5058647;28;20024;-76
2021/04/29 08:54:23;;;;;;;15.50;5.70;;;;;;;17.31;66.79;99909.94;5056690;28;20040;-76
2021/04/29 08:56:51;;;;;;;13.20;6.20;;;;;;;17.48;66.40;99914.59;5055124;28;20032;-76
2021/04/29 08:59:16;;;;;;;11.13;5.00;;;;;;;17.63;65.27;99920.88;5055244;28;20471;-76
2021/04/29 09:01:46;;;;;;;9.50;5.25;;;;;;;17.52;64.04;99909.72;5055530;28;20021;-76
2021/04/29 09:04:16;;;;;;;13.07;5.53;;;;;;;17.55;64.11;99892.03;5055777;28;20422;-78
2021/04/29 09:06:44;;;;;;;14.20;5.15;;;;;;;17.90;63.34;99937.94;5055682;28;20025;-76
2021/04/29 09:09:11;;;;;;;9.15;4.75;;;;;;;18.02;63.22;99931.75;5054749;28;20088;-76
2021/04/29 09:11:53;;;;;;;17.02;5.10;;;;;;;18.17;62.78;99938.81;5054837;28;20078;-74
2021/04/29 09:14:35;;;;;;;12.07;4.40;;;;;;;18.13;62.46;99937.25;5055719;28;20033;-76
2021/04/29 09:17:01;;;;;;;14.63;4.95;;;;;;;18.25;61.58;99945.16;5056160;28;20044;-76
2021/04/29 09:19:30;;;;;;;9.95;4.05;;;;;;;18.31;61.73;99974.44;5054907;28;20460;-75
2021/04/29 09:21:57;;;;;;;12.48;6.28;;;;;;;18.55;61.11;99993.06;5056176;28;20029;-76
2021/04/29 09:24:34;;;;;;;12.65;4.53;;;;;;;18.70;59.93;100010.63;5054493;28;20029;-75
2021/04/29 09:27:12;;;;;;;9.88;4.78;;;;;;;18.92;59.60;100016.78;5054506;28;20068;-76
2021/04/29 09:29:56;;;;;;;11.05;5.32;;;;;;;19.12;58.93;99999.94;5054412;28;20029;-75
2021/04/29 09:32:30;;;;;;;7.00;4.40;;;;;;;19.40;57.41;99997.94;5054476;28;20024;-75
2021/04/29 09:34:57;;;;;;;11.32;4.40;;;;;;;19.63;56.81;99995.94;5056229;28;20036;-75
2021/04/29 09:37:29;;;;;;;8.38;3.65;;;;;;;19.87;54.44;99996.75;5055993;28;20367;-76
2021/04/29 09:39:55;;;;;;;10.37;3.40;;;;;;;20.24;52.78;100003.31;5056142;28;20466;-75
2021/04/29 09:42:35;;;;;;;4.55;3.00;;;;;;;20.44;51.47;99994.03;5055012;28;20029;-75
2021/04/29 09:45:03;;;;;;;4.63;2.45;;;;;;;20.88;50.40;100007.69;5055371;28;20028;-75
2021/04/29 09:47:29;;;;;;;11.18;3.30;;;;;;;21.14;49.56;100008.69;5054312;28;20119;-76
2021/04/29 09:49:55;;;;;;;7.45;2.88;;;;;;;21.53;49.13;99995.69;5053970;28;20067;-76
2021/04/29 09:52:25;;;;;;;7.65;3.15;;;;;;;21.95;47.95;99996.63;5054537;28;20033;-76
2021/04/29 09:54:54;;;;;;;6.95;3.63;;;;;;;22.36;47.47;100005.66;5055712;28;20032;-75
2021/04/29 09:57:28;;;;;;;8.82;3.47;;;;;;;22.48;47.40;99985.06;5055054;28;20036;-75
2021/04/29 10:00:01;;;;;;;7.97;3.80;;;;;;;23.15;46.60;99999.25;5055190;28;20025;-76
2021/04/29 10:02:34;;;;;;;12.43;3.45;;;;;;;23.82;44.95;100000.38;5053272;28;20037;-75
2021/04/29 10:05:02;;;;;;;9.25;3.42;;;;;;;24.31;44.38;100004.28;5054070;28;20036;-75
2021/04/29 10:07:33;;;;;;;6.55;3.78;;;;;;;24.57;43.74;100004.19;5053133;28;20029;-76
2021/04/29 10:09:59;;;;;;;7.07;3.67;;;;;;;24.84;41.81;100009.25;5052985;28;20377;-75
2021/04/29 10:12:28;;;;;;;4.18;3.17;;;;;;;24.55;39.60;100015.22;5053761;28;20032;-75
2021/04/29 10:14:54;;;;;;;8.48;3.90;;;;;;;24.60;40.35;100013.81;5053403;28;20025;-75
2021/04/29 10:17:21;;;;;;;6.53;3.38;;;;;;;23.41;42.83;99994.38;5054587;28;20025;-75
2021/04/29 10:19:50;;;;;;;6.97;3.15;;;;;;;23.82;42.22;99983.31;5053327;28;20025;-74
2021/04/29 10:22:16;;;;;;;7.45;2.72;;;;;;;23.36;41.72;99997.78;5053726;28;20029;-75
2021/04/29 10:24:47;;;;;;;4.28;2.72;;;;;;;23.18;41.96;99989.06;5054715;28;20086;-75
2021/04/29 10:27:16;;;;;;;6.90;2.42;;;;;;;23.29;42.02;99975.31;5053320;28;20115;-75
2021/04/29 10:29:47;;;;;;;4.72;2.50;;;;;;;23.38;41.89;99947.00;5053188;28;20041;-75
2021/04/29 10:32:14;;;;;;;5.53;2.67;;;;;;;23.47;42.05;99958.47;5054167;28;20024;-75
2021/04/29 10:34:45;;;;;;;5.03;2.60;;;;;;;23.34;41.73;99963.38;5053557;28;20379;-75
2021/04/29 10:37:23;;;;;;;7.70;2.55;;;;;;;24.01;41.03;99968.78;5052678;28;20025;-75
2021/04/29 10:39:50;;;;;;;3.83;2.47;;;;;;;24.20;40.31;99966.13;5054857;28;20406;-75
2021/04/29 10:42:16;;;;;;;8.15;3.22;;;;;;;24.47;40.31;99972.03;5053902;28;20075;-75
2021/04/29 10:44:45;;;;;;;8.50;3.00;;;;;;;24.36;40.44;99994.38;5052675;28;20029;-75
2021/04/29 10:47:22;;;;;;;7.07;2.83;;;;;;;24.61;39.96;99986.97;5053144;28;20028;-75
2021/04/29 10:49:48;;;;;;;5.78;2.65;;;;;;;23.93;40.60;99987.38;5052870;28;20070;-75
2021/04/29 10:52:13;;;;;;;5.45;3.20;;;;;;;23.75;41.28;99979.44;5036370;28;20033;-77
2021/04/29 10:54:49;;;;;;;5.45;3.00;;;;;;;23.58;40.99;99980.03;5052713;28;20120;-75
2021/04/29 10:57:16;;;;;;;7.22;3.55;;;;;;;22.95;42.06;99959.75;5053997;28;20021;-75
2021/04/29 10:59:52;;;;;;;5.13;2.63;;;;;;;22.56;42.66;99945.94;5054595;28;20071;-75
2021/04/29 11:02:25;;;;;;;5.18;2.63;;;;;;;22.29;43.82;99949.16;5053064;28;20056;-75
2021/04/29 11:04:54;;;;;;;5.00;2.70;;;;;;;22.06;44.79;99941.72;5053425;28;20043;-75
2021/04/29 11:07:22;;;;;;;6.03;2.35;;;;;;;21.56;46.40;99937.38;5052636;28;20021;-75
2021/04/29 11:10:03;;;;;;;6.55;2.97;;;;;;;21.64;47.71;99927.47;5035735;28;20148;-75
2021/04/29 11:12:48;;;;;;;8.55;3.92;;;;;;;21.77;49.37;99925.47;5052532;28;20032;-75
2021/04/29 11:15:28;;;;;;;7.03;4.18;;;;;;;21.84;48.85;99919.63;5053015;28;20380;-76
2021/04/29 11:18:04;;;;;;;8.07;3.38;;;;;;;21.98;48.09;99918.44;5052219;28;20025;-75
2021/04/29 11:20:54;;;;;;;7.50;3.80;;;;;;;21.66;48.26;99920.09;5052992;28;20029;-75
2021/04/29 11:23:39;;;;;;;6.10;2.95;;;;;;;22.18;47.49;99919.09;5052199;28;20039;-75
2021/04/29 11:26:20;;;;;;;8.65;3.85;;;;;;;22.14;47.00;99911.94;5052199;28;20025;-75
2021/04/29 11:28:52;;;;;;;6.03;4.03;;;;;;;22.22;47.23;99913.34;5052256;28;20024;-75
2021/04/29 11:31:19;;;;;;;6.47;3.58;;;;;;;22.40;46.53;99918.47;5053940;28;20025;-75
2021/04/29 11:33:48;;;;;;;6.65;3.65;;;;;;;22.58;46.38;99920.75;5053048;28;20025;-75
2021/04/29 11:36:32;;;;;;;5.68;3.50;;;;;;;23.10;46.00;99928.09;5053594;28;20419;-75
2021/04/29 11:39:06;;;;;;;8.20;3.88;;;;;;;23.61;44.99;99933.69;5052527;28;20384;-75